sensor_id;sensor_type;location;lat;lon;timestamp;temperature;humidity
69901;DHT22;57183;50.930;5.406;2022-08-06T00:01:51;13.80;99.90
69901;DHT22;57183;50.930;5.406;2022-08-06T00:04:18;13.80;99.90
69901;DHT22;57183;50.930;5.406;2022-08-06T00:06:44;13.80;99.90
69901;DHT22;57183;50.930;5.406;2022-08-06T00:09:10;13.70;99.90
69901;DHT22;57183;50.930;5.406;2022-08-06T00:11:37;13.70;99.90
69901;DHT22;57183;50.930;5.406;2022-08-06T00:14:03;13.50;99.90
69901;DHT22;57183;50.930;5.406;2022-08-06T00:16:29;13.40;99.90
69901;DHT22;57183;50.930;5.406;2022-08-06T00:18:54;13.30;99.90
69901;DHT22;57183;50.930;5.406;2022-08-06T00:21:20;13.20;99.90
69901;DHT22;57183;50.930;5.406;2022-08-06T00:23:46;13.10;99.90
69901;DHT22;57183;50.930;5.406;2022-08-06T00:26:11;12.90;99.90
69901;DHT22;57183;50.930;5.406;2022-08-06T00:28:37;12.80;99.90
69901;DHT22;57183;50.930;5.406;2022-08-06T00:31:04;12.80;99.90
69901;DHT22;57183;50.930;5.406;2022-08-06T00:33:30;12.70;99.90
69901;DHT22;57183;50.930;5.406;2022-08-06T00:35:56;12.70;99.90
69901;DHT22;57183;50.930;5.406;2022-08-06T00:38:21;12.60;99.90
69901;DHT22;57183;50.930;5.406;2022-08-06T00:40:48;12.60;99.90
69901;DHT22;57183;50.930;5.406;2022-08-06T00:43:15;12.60;99.90
69901;DHT22;57183;50.930;5.406;2022-08-06T00:45:40;12.60;99.90
69901;DHT22;57183;50.930;5.406;2022-08-06T00:48:06;12.60;99.90
69901;DHT22;57183;50.930;5.406;2022-08-06T00:50:32;12.60;99.90
69901;DHT22;57183;50.930;5.406;2022-08-06T00:52:59;12.50;99.90
69901;DHT22;57183;50.930;5.406;2022-08-06T00:55:25;12.60;99.90
69901;DHT22;57183;50.930;5.406;2022-08-06T00:57:51;12.50;99.90
69901;DHT22;57183;50.930;5.406;2022-08-06T01:00:17;12.50;99.90
69901;DHT22;57183;50.930;5.406;2022-08-06T01:02:42;12.50;99.90
69901;DHT22;57183;50.930;5.406;2022-08-06T01:05:08;12.40;99.90
69901;DHT22;57183;50.930;5.406;2022-08-06T01:07:34;12.30;99.90
69901;DHT22;57183;50.930;5.406;2022-08-06T01:09:59;12.20;99.90
69901;DHT22;57183;50.930;5.406;2022-08-06T01:12:26;12.10;99.90
69901;DHT22;57183;50.930;5.406;2022-08-06T01:14:52;12.30;99.90
69901;DHT22;57183;50.930;5.406;2022-08-06T01:28:10;12.10;99.90
69901;DHT22;57183;50.930;5.406;2022-08-06T01:30:42;12.20;99.90
69901;DHT22;57183;50.930;5.406;2022-08-06T01:33:16;12.20;99.90
69901;DHT22;57183;50.930;5.406;2022-08-06T01:35:49;12.10;99.90
69901;DHT22;57183;50.930;5.406;2022-08-06T01:38:25;12.10;99.90
69901;DHT22;57183;50.930;5.406;2022-08-06T01:40:52;12.00;99.90
69901;DHT22;57183;50.930;5.406;2022-08-06T01:43:21;12.10;99.90
69901;DHT22;57183;50.930;5.406;2022-08-06T01:45:49;12.10;99.90
69901;DHT22;57183;50.930;5.406;2022-08-06T01:48:19;12.10;99.90
69901;DHT22;57183;50.930;5.406;2022-08-06T01:50:49;12.10;99.90
69901;DHT22;57183;50.930;5.406;2022-08-06T01:53:29;12.00;99.90
69901;DHT22;57183;50.930;5.406;2022-08-06T01:55:58;12.00;99.90
69901;DHT22;57183;50.930;5.406;2022-08-06T01:58:29;12.00;99.90
69901;DHT22;57183;50.930;5.406;2022-08-06T02:00:56;12.00;99.90
69901;DHT22;57183;50.930;5.406;2022-08-06T02:03:30;12.00;99.90
69901;DHT22;57183;50.930;5.406;2022-08-06T02:05:56;11.90;99.90
69901;DHT22;57183;50.930;5.406;2022-08-06T02:08:26;11.80;99.90
69901;DHT22;57183;50.930;5.406;2022-08-06T02:10:53;11.70;99.90
69901;DHT22;57183;50.930;5.406;2022-08-06T02:13:21;11.70;99.90
69901;DHT22;57183;50.930;5.406;2022-08-06T02:15:49;11.60;99.90
69901;DHT22;57183;50.930;5.406;2022-08-06T02:18:17;11.60;99.90
69901;DHT22;57183;50.930;5.406;2022-08-06T02:20:49;11.50;99.90
69901;DHT22;57183;50.930;5.406;2022-08-06T02:23:20;11.60;99.90
69901;DHT22;57183;50.930;5.406;2022-08-06T02:25:48;11.50;99.90
69901;DHT22;57183;50.930;5.406;2022-08-06T02:28:18;11.60;99.90
69901;DHT22;57183;50.930;5.406;2022-08-06T02:30:46;12.00;99.90
69901;DHT22;57183;50.930;5.406;2022-08-06T02:33:13;12.30;99.90
69901;DHT22;57183;50.930;5.406;2022-08-06T02:35:52;12.40;99.90
69901;DHT22;57183;50.930;5.406;2022-08-06T02:38:22;12.70;99.90
69901;DHT22;57183;50.930;5.406;2022-08-06T02:40:55;12.60;99.90
69901;DHT22;57183;50.930;5.406;2022-08-06T02:43:32;12.40;99.90
69901;DHT22;57183;50.930;5.406;2022-08-06T02:48:51;11.90;99.90
69901;DHT22;57183;50.930;5.406;2022-08-06T02:51:21;11.70;99.90
69901;DHT22;57183;50.930;5.406;2022-08-06T02:53:54;11.60;99.90
69901;DHT22;57183;50.930;5.406;2022-08-06T02:56:23;11.50;99.90
69901;DHT22;57183;50.930;5.406;2022-08-06T02:58:51;11.40;99.90
69901;DHT22;57183;50.930;5.406;2022-08-06T03:01:20;11.30;99.90
69901;DHT22;57183;50.930;5.406;2022-08-06T03:03:49;11.20;99.90
69901;DHT22;57183;50.930;5.406;2022-08-06T03:06:18;11.20;99.90
69901;DHT22;57183;50.930;5.406;2022-08-06T03:08:45;11.20;99.90
69901;DHT22;57183;50.930;5.406;2022-08-06T03:11:13;11.20;99.90
69901;DHT22;57183;50.930;5.406;2022-08-06T03:13:42;11.10;99.90
69901;DHT22;57183;50.930;5.406;2022-08-06T03:16:09;11.10;99.90
69901;DHT22;57183;50.930;5.406;2022-08-06T03:18:36;11.10;99.90
69901;DHT22;57183;50.930;5.406;2022-08-06T03:21:03;11.10;99.90
69901;DHT22;57183;50.930;5.406;2022-08-06T03:23:31;11.10;99.90
69901;DHT22;57183;50.930;5.406;2022-08-06T03:25:57;11.50;99.90
69901;DHT22;57183;50.930;5.406;2022-08-06T03:28:24;11.90;99.90
69901;DHT22;57183;50.930;5.406;2022-08-06T03:30:51;11.90;99.90
69901;DHT22;57183;50.930;5.406;2022-08-06T03:33:18;11.80;99.90
69901;DHT22;57183;50.930;5.406;2022-08-06T03:35:45;11.50;99.90
69901;DHT22;57183;50.930;5.406;2022-08-06T03:38:12;11.40;99.90
69901;DHT22;57183;50.930;5.406;2022-08-06T03:40:41;11.30;99.90
69901;DHT22;57183;50.930;5.406;2022-08-06T03:43:08;11.30;99.90
69901;DHT22;57183;50.930;5.406;2022-08-06T03:45:38;11.20;99.90
69901;DHT22;57183;50.930;5.406;2022-08-06T03:48:06;11.00;99.90
69901;DHT22;57183;50.930;5.406;2022-08-06T03:50:36;11.00;99.90
69901;DHT22;57183;50.930;5.406;2022-08-06T03:53:12;10.90;99.90
69901;DHT22;57183;50.930;5.406;2022-08-06T03:55:38;10.70;99.90
69901;DHT22;57183;50.930;5.406;2022-08-06T03:58:08;10.80;99.90
69901;DHT22;57183;50.930;5.406;2022-08-06T04:00:38;10.70;99.90
69901;DHT22;57183;50.930;5.406;2022-08-06T04:03:07;10.70;99.90
69901;DHT22;57183;50.930;5.406;2022-08-06T04:05:33;10.70;99.90
69901;DHT22;57183;50.930;5.406;2022-08-06T04:08:04;10.80;99.90
69901;DHT22;57183;50.930;5.406;2022-08-06T04:13:07;10.60;99.90
69901;DHT22;57183;50.930;5.406;2022-08-06T04:15:35;10.60;99.90
69901;DHT22;57183;50.930;5.406;2022-08-06T04:18:03;10.60;99.90
69901;DHT22;57183;50.930;5.406;2022-08-06T04:20:30;10.70;99.90
69901;DHT22;57183;50.930;5.406;2022-08-06T04:22:57;10.80;99.90
69901;DHT22;57183;50.930;5.406;2022-08-06T04:25:24;10.70;99.90
69901;DHT22;57183;50.930;5.406;2022-08-06T04:27:52;10.70;99.90
69901;DHT22;57183;50.930;5.406;2022-08-06T04:30:20;10.70;99.90
69901;DHT22;57183;50.930;5.406;2022-08-06T04:32:47;10.80;99.90
69901;DHT22;57183;50.930;5.406;2022-08-06T04:35:13;10.80;99.90
69901;DHT22;57183;50.930;5.406;2022-08-06T04:37:39;10.70;99.90
69901;DHT22;57183;50.930;5.406;2022-08-06T04:40:07;10.70;99.90
69901;DHT22;57183;50.930;5.406;2022-08-06T04:42:33;10.80;99.90
69901;DHT22;57183;50.930;5.406;2022-08-06T04:45:00;10.90;99.90
69901;DHT22;57183;50.930;5.406;2022-08-06T04:47:29;10.90;99.90
69901;DHT22;57183;50.930;5.406;2022-08-06T04:49:56;10.80;99.90
69901;DHT22;57183;50.930;5.406;2022-08-06T04:52:25;10.70;99.90
69901;DHT22;57183;50.930;5.406;2022-08-06T04:54:51;10.70;99.90
69901;DHT22;57183;50.930;5.406;2022-08-06T04:57:17;10.80;99.90
69901;DHT22;57183;50.930;5.406;2022-08-06T04:59:43;10.90;99.90
69901;DHT22;57183;50.930;5.406;2022-08-06T05:02:09;10.90;99.90
69901;DHT22;57183;50.930;5.406;2022-08-06T05:04:35;11.00;99.90
69901;DHT22;57183;50.930;5.406;2022-08-06T05:07:13;10.90;99.90
69901;DHT22;57183;50.930;5.406;2022-08-06T05:09:40;10.90;99.90
69901;DHT22;57183;50.930;5.406;2022-08-06T05:14:43;11.10;99.90
69901;DHT22;57183;50.930;5.406;2022-08-06T05:17:13;11.20;99.90
69901;DHT22;57183;50.930;5.406;2022-08-06T05:19:51;11.20;99.90
69901;DHT22;57183;50.930;5.406;2022-08-06T05:22:19;11.40;99.90
69901;DHT22;57183;50.930;5.406;2022-08-06T05:24:45;11.60;99.90
69901;DHT22;57183;50.930;5.406;2022-08-06T05:27:13;11.80;99.90
69901;DHT22;57183;50.930;5.406;2022-08-06T05:29:40;12.00;99.90
69901;DHT22;57183;50.930;5.406;2022-08-06T05:32:06;12.10;99.90
69901;DHT22;57183;50.930;5.406;2022-08-06T05:34:32;12.20;99.90
69901;DHT22;57183;50.930;5.406;2022-08-06T05:36:58;12.20;99.90
69901;DHT22;57183;50.930;5.406;2022-08-06T05:39:23;12.30;99.90
69901;DHT22;57183;50.930;5.406;2022-08-06T05:41:49;12.30;99.90
69901;DHT22;57183;50.930;5.406;2022-08-06T05:44:15;12.50;99.90
69901;DHT22;57183;50.930;5.406;2022-08-06T05:46:49;12.60;99.90
69901;DHT22;57183;50.930;5.406;2022-08-06T05:49:29;12.80;99.90
69901;DHT22;57183;50.930;5.406;2022-08-06T05:52:19;12.90;99.90
69901;DHT22;57183;50.930;5.406;2022-08-06T05:54:56;13.00;99.90
69901;DHT22;57183;50.930;5.406;2022-08-06T05:57:35;13.10;99.90
69901;DHT22;57183;50.930;5.406;2022-08-06T06:00:06;13.30;99.90
69901;DHT22;57183;50.930;5.406;2022-08-06T06:02:38;13.40;99.90
69901;DHT22;57183;50.930;5.406;2022-08-06T06:05:05;13.60;99.90
69901;DHT22;57183;50.930;5.406;2022-08-06T06:07:31;13.80;99.90
69901;DHT22;57183;50.930;5.406;2022-08-06T06:09:58;14.00;99.90
69901;DHT22;57183;50.930;5.406;2022-08-06T06:12:24;14.10;99.90
69901;DHT22;57183;50.930;5.406;2022-08-06T06:14:51;14.40;99.90
69901;DHT22;57183;50.930;5.406;2022-08-06T06:20:11;14.60;99.90
69901;DHT22;57183;50.930;5.406;2022-08-06T06:22:58;14.90;99.90
69901;DHT22;57183;50.930;5.406;2022-08-06T06:25:35;15.00;99.90
69901;DHT22;57183;50.930;5.406;2022-08-06T06:30:46;15.00;99.90
69901;DHT22;57183;50.930;5.406;2022-08-06T06:37:03;15.30;99.90
69901;DHT22;57183;50.930;5.406;2022-08-06T06:39:38;15.60;99.90
69901;DHT22;57183;50.930;5.406;2022-08-06T06:42:46;16.00;99.90
69901;DHT22;57183;50.930;5.406;2022-08-06T06:45:06;16.30;99.90
69901;DHT22;57183;50.930;5.406;2022-08-06T06:50:15;16.60;99.90
69901;DHT22;57183;50.930;5.406;2022-08-06T06:52:44;16.70;99.90
69901;DHT22;57183;50.930;5.406;2022-08-06T06:57:56;16.90;99.90
69901;DHT22;57183;50.930;5.406;2022-08-06T07:00:24;16.90;99.90
69901;DHT22;57183;50.930;5.406;2022-08-06T07:02:52;16.90;99.90
69901;DHT22;57183;50.930;5.406;2022-08-06T07:05:20;17.10;99.90
69901;DHT22;57183;50.930;5.406;2022-08-06T07:07:48;17.20;99.90
69901;DHT22;57183;50.930;5.406;2022-08-06T07:10:15;17.40;99.90
69901;DHT22;57183;50.930;5.406;2022-08-06T07:12:44;17.50;99.90
69901;DHT22;57183;50.930;5.406;2022-08-06T07:15:12;17.70;99.90
69901;DHT22;57183;50.930;5.406;2022-08-06T07:17:39;17.90;99.90
69901;DHT22;57183;50.930;5.406;2022-08-06T07:20:08;18.10;99.90
69901;DHT22;57183;50.930;5.406;2022-08-06T07:22:35;18.20;99.90
69901;DHT22;57183;50.930;5.406;2022-08-06T07:25:03;18.40;99.90
69901;DHT22;57183;50.930;5.406;2022-08-06T07:27:35;18.60;99.90
69901;DHT22;57183;50.930;5.406;2022-08-06T07:30:01;18.80;99.90
69901;DHT22;57183;50.930;5.406;2022-08-06T07:32:30;18.90;99.90
69901;DHT22;57183;50.930;5.406;2022-08-06T07:34:57;18.90;99.90
69901;DHT22;57183;50.930;5.406;2022-08-06T07:37:25;19.00;99.90
69901;DHT22;57183;50.930;5.406;2022-08-06T07:39:53;19.10;99.90
69901;DHT22;57183;50.930;5.406;2022-08-06T07:42:20;19.20;99.90
69901;DHT22;57183;50.930;5.406;2022-08-06T07:44:52;19.50;99.90
69901;DHT22;57183;50.930;5.406;2022-08-06T07:47:20;19.50;99.90
69901;DHT22;57183;50.930;5.406;2022-08-06T07:49:52;19.50;99.90
69901;DHT22;57183;50.930;5.406;2022-08-06T07:52:19;19.50;99.90
69901;DHT22;57183;50.930;5.406;2022-08-06T07:54:46;19.80;99.90
69901;DHT22;57183;50.930;5.406;2022-08-06T07:57:13;19.90;99.90
69901;DHT22;57183;50.930;5.406;2022-08-06T07:59:40;20.10;99.90
69901;DHT22;57183;50.930;5.406;2022-08-06T08:02:06;20.20;99.70
69901;DHT22;57183;50.930;5.406;2022-08-06T08:04:34;20.10;99.50
69901;DHT22;57183;50.930;5.406;2022-08-06T08:07:18;20.20;99.90
69901;DHT22;57183;50.930;5.406;2022-08-06T08:09:45;20.50;99.50
69901;DHT22;57183;50.930;5.406;2022-08-06T08:12:14;20.60;98.90
69901;DHT22;57183;50.930;5.406;2022-08-06T08:14:43;20.70;97.60
69901;DHT22;57183;50.930;5.406;2022-08-06T08:17:10;20.70;95.20
69901;DHT22;57183;50.930;5.406;2022-08-06T08:19:35;20.70;94.80
69901;DHT22;57183;50.930;5.406;2022-08-06T08:22:05;20.50;95.40
69901;DHT22;57183;50.930;5.406;2022-08-06T08:24:32;20.80;94.90
69901;DHT22;57183;50.930;5.406;2022-08-06T08:26:59;20.80;93.80
69901;DHT22;57183;50.930;5.406;2022-08-06T08:29:25;20.80;93.10
69901;DHT22;57183;50.930;5.406;2022-08-06T08:31:51;20.70;92.60
69901;DHT22;57183;50.930;5.406;2022-08-06T08:34:17;20.60;92.70
69901;DHT22;57183;50.930;5.406;2022-08-06T08:36:42;20.60;93.40
69901;DHT22;57183;50.930;5.406;2022-08-06T08:39:09;20.70;92.90
69901;DHT22;57183;50.930;5.406;2022-08-06T08:41:39;20.80;92.50
69901;DHT22;57183;50.930;5.406;2022-08-06T08:44:07;21.00;92.90
69901;DHT22;57183;50.930;5.406;2022-08-06T08:46:41;21.20;92.90
69901;DHT22;57183;50.930;5.406;2022-08-06T08:49:19;21.10;91.90
69901;DHT22;57183;50.930;5.406;2022-08-06T08:51:46;21.10;91.70
69901;DHT22;57183;50.930;5.406;2022-08-06T08:54:15;21.40;91.50
69901;DHT22;57183;50.930;5.406;2022-08-06T08:56:41;21.60;92.60
69901;DHT22;57183;50.930;5.406;2022-08-06T08:59:08;21.70;90.80
69901;DHT22;57183;50.930;5.406;2022-08-06T09:01:34;21.70;90.50
69901;DHT22;57183;50.930;5.406;2022-08-06T09:04:04;22.00;90.80
69901;DHT22;57183;50.930;5.406;2022-08-06T09:06:31;21.90;89.00
69901;DHT22;57183;50.930;5.406;2022-08-06T09:09:00;22.00;88.90
69901;DHT22;57183;50.930;5.406;2022-08-06T09:11:33;22.00;88.50
69901;DHT22;57183;50.930;5.406;2022-08-06T09:14:03;22.00;90.20
69901;DHT22;57183;50.930;5.406;2022-08-06T09:16:31;22.10;89.80
69901;DHT22;57183;50.930;5.406;2022-08-06T09:18:58;22.10;88.80
69901;DHT22;57183;50.930;5.406;2022-08-06T09:21:24;22.10;87.00
69901;DHT22;57183;50.930;5.406;2022-08-06T09:23:49;22.10;85.80
69901;DHT22;57183;50.930;5.406;2022-08-06T09:26:15;22.10;87.80
69901;DHT22;57183;50.930;5.406;2022-08-06T09:28:43;22.10;88.10
69901;DHT22;57183;50.930;5.406;2022-08-06T09:31:14;22.20;85.50
69901;DHT22;57183;50.930;5.406;2022-08-06T09:33:53;22.10;87.70
69901;DHT22;57183;50.930;5.406;2022-08-06T09:36:19;22.10;86.10
69901;DHT22;57183;50.930;5.406;2022-08-06T09:38:54;22.10;86.30
69901;DHT22;57183;50.930;5.406;2022-08-06T09:41:22;22.00;85.10
69901;DHT22;57183;50.930;5.406;2022-08-06T09:43:53;21.90;85.60
69901;DHT22;57183;50.930;5.406;2022-08-06T09:46:39;21.80;87.60
69901;DHT22;57183;50.930;5.406;2022-08-06T09:49:05;21.70;83.80
69901;DHT22;57183;50.930;5.406;2022-08-06T09:51:31;21.60;85.60
69901;DHT22;57183;50.930;5.406;2022-08-06T09:54:00;21.70;87.10
69901;DHT22;57183;50.930;5.406;2022-08-06T09:56:26;21.90;84.90
69901;DHT22;57183;50.930;5.406;2022-08-06T09:59:07;22.10;83.80
69901;DHT22;57183;50.930;5.406;2022-08-06T10:01:39;22.30;84.50
69901;DHT22;57183;50.930;5.406;2022-08-06T10:04:06;22.40;83.60
69901;DHT22;57183;50.930;5.406;2022-08-06T10:06:32;22.50;83.80
69901;DHT22;57183;50.930;5.406;2022-08-06T10:09:12;22.70;83.90
69901;DHT22;57183;50.930;5.406;2022-08-06T10:11:40;22.70;84.30
69901;DHT22;57183;50.930;5.406;2022-08-06T10:14:33;22.60;82.20
69901;DHT22;57183;50.930;5.406;2022-08-06T10:17:16;22.50;80.10
69901;DHT22;57183;50.930;5.406;2022-08-06T10:19:44;22.60;79.50
69901;DHT22;57183;50.930;5.406;2022-08-06T10:22:19;22.60;78.50
69901;DHT22;57183;50.930;5.406;2022-08-06T10:24:49;22.70;80.90
69901;DHT22;57183;50.930;5.406;2022-08-06T10:27:28;22.60;79.80
69901;DHT22;57183;50.930;5.406;2022-08-06T10:29:55;22.60;80.20
69901;DHT22;57183;50.930;5.406;2022-08-06T10:32:29;22.60;76.90
69901;DHT22;57183;50.930;5.406;2022-08-06T10:34:55;22.60;78.40
69901;DHT22;57183;50.930;5.406;2022-08-06T10:37:21;22.70;76.80
69901;DHT22;57183;50.930;5.406;2022-08-06T10:39:51;22.80;78.90
69901;DHT22;57183;50.930;5.406;2022-08-06T10:42:19;22.80;77.20
69901;DHT22;57183;50.930;5.406;2022-08-06T10:44:46;22.70;76.20
69901;DHT22;57183;50.930;5.406;2022-08-06T10:47:13;23.00;74.30
69901;DHT22;57183;50.930;5.406;2022-08-06T10:49:39;23.50;73.90
69901;DHT22;57183;50.930;5.406;2022-08-06T10:52:06;23.70;74.10
69901;DHT22;57183;50.930;5.406;2022-08-06T10:54:32;23.70;74.10
69901;DHT22;57183;50.930;5.406;2022-08-06T10:56:58;23.70;72.40
69901;DHT22;57183;50.930;5.406;2022-08-06T10:59:24;23.70;72.90
69901;DHT22;57183;50.930;5.406;2022-08-06T11:05:09;23.90;71.70
69901;DHT22;57183;50.930;5.406;2022-08-06T11:10:55;23.50;72.10
69901;DHT22;57183;50.930;5.406;2022-08-06T11:16:05;23.50;70.90
69901;DHT22;57183;50.930;5.406;2022-08-06T11:18:31;23.40;68.90
69901;DHT22;57183;50.930;5.406;2022-08-06T11:20:57;23.60;71.20
69901;DHT22;57183;50.930;5.406;2022-08-06T11:23:30;23.80;69.60
69901;DHT22;57183;50.930;5.406;2022-08-06T11:26:01;24.10;65.80
69901;DHT22;57183;50.930;5.406;2022-08-06T11:31:01;24.00;68.70
69901;DHT22;57183;50.930;5.406;2022-08-06T11:36:05;23.60;71.20
69901;DHT22;57183;50.930;5.406;2022-08-06T11:39:00;23.50;73.00
69901;DHT22;57183;50.930;5.406;2022-08-06T11:41:28;23.20;72.20
69901;DHT22;57183;50.930;5.406;2022-08-06T11:51:49;24.00;70.90
69901;DHT22;57183;50.930;5.406;2022-08-06T11:54:26;24.00;69.90
69901;DHT22;57183;50.930;5.406;2022-08-06T11:59:31;24.20;68.40
69901;DHT22;57183;50.930;5.406;2022-08-06T12:01:58;24.60;66.90
69901;DHT22;57183;50.930;5.406;2022-08-06T12:07:24;24.70;67.80
69901;DHT22;57183;50.930;5.406;2022-08-06T12:10:09;24.80;65.50
69901;DHT22;57183;50.930;5.406;2022-08-06T12:12:42;24.80;64.80
69901;DHT22;57183;50.930;5.406;2022-08-06T12:17:42;24.70;64.50
69901;DHT22;57183;50.930;5.406;2022-08-06T12:20:30;24.70;65.00
69901;DHT22;57183;50.930;5.406;2022-08-06T12:23:04;24.60;65.60
69901;DHT22;57183;50.930;5.406;2022-08-06T12:25:36;24.60;66.90
69901;DHT22;57183;50.930;5.406;2022-08-06T12:28:03;24.40;66.00
69901;DHT22;57183;50.930;5.406;2022-08-06T12:30:49;24.30;63.90
69901;DHT22;57183;50.930;5.406;2022-08-06T12:33:16;24.00;64.70
69901;DHT22;57183;50.930;5.406;2022-08-06T12:35:59;23.90;65.20
69901;DHT22;57183;50.930;5.406;2022-08-06T12:38:28;24.10;65.80
69901;DHT22;57183;50.930;5.406;2022-08-06T12:41:08;24.40;66.90
69901;DHT22;57183;50.930;5.406;2022-08-06T12:43:36;24.30;65.40
69901;DHT22;57183;50.930;5.406;2022-08-06T12:46:06;24.10;63.90
69901;DHT22;57183;50.930;5.406;2022-08-06T12:48:34;24.00;63.30
69901;DHT22;57183;50.930;5.406;2022-08-06T12:51:05;24.00;65.50
69901;DHT22;57183;50.930;5.406;2022-08-06T12:53:32;24.30;63.80
69901;DHT22;57183;50.930;5.406;2022-08-06T12:55:57;24.60;63.80
69901;DHT22;57183;50.930;5.406;2022-08-06T12:58:34;24.60;63.40
69901;DHT22;57183;50.930;5.406;2022-08-06T13:01:02;24.80;62.80
69901;DHT22;57183;50.930;5.406;2022-08-06T13:03:30;24.80;62.80
69901;DHT22;57183;50.930;5.406;2022-08-06T13:06:00;24.50;61.80
69901;DHT22;57183;50.930;5.406;2022-08-06T13:08:26;24.40;62.50
69901;DHT22;57183;50.930;5.406;2022-08-06T13:10:54;24.30;64.50
69901;DHT22;57183;50.930;5.406;2022-08-06T13:13:21;24.40;61.70
69901;DHT22;57183;50.930;5.406;2022-08-06T13:16:05;24.40;63.10
69901;DHT22;57183;50.930;5.406;2022-08-06T13:18:31;24.80;63.10
69901;DHT22;57183;50.930;5.406;2022-08-06T13:20:57;24.90;63.60
69901;DHT22;57183;50.930;5.406;2022-08-06T13:23:35;24.90;62.40
69901;DHT22;57183;50.930;5.406;2022-08-06T13:26:47;24.80;63.60
69901;DHT22;57183;50.930;5.406;2022-08-06T13:29:18;24.60;62.80
69901;DHT22;57183;50.930;5.406;2022-08-06T13:31:45;24.30;63.50
69901;DHT22;57183;50.930;5.406;2022-08-06T13:34:13;24.40;62.80
69901;DHT22;57183;50.930;5.406;2022-08-06T13:36:42;24.60;62.20
69901;DHT22;57183;50.930;5.406;2022-08-06T13:39:47;24.90;63.50
69901;DHT22;57183;50.930;5.406;2022-08-06T13:42:13;25.20;62.70
69901;DHT22;57183;50.930;5.406;2022-08-06T13:44:42;24.90;62.60
69901;DHT22;57183;50.930;5.406;2022-08-06T13:47:09;24.70;61.90
69901;DHT22;57183;50.930;5.406;2022-08-06T13:49:39;24.30;64.70
69901;DHT22;57183;50.930;5.406;2022-08-06T13:52:05;24.20;65.10
69901;DHT22;57183;50.930;5.406;2022-08-06T13:54:31;24.40;62.70
69901;DHT22;57183;50.930;5.406;2022-08-06T13:56:57;24.30;62.70
69901;DHT22;57183;50.930;5.406;2022-08-06T13:59:26;24.30;61.60
69901;DHT22;57183;50.930;5.406;2022-08-06T14:01:52;24.30;61.90
69901;DHT22;57183;50.930;5.406;2022-08-06T14:04:19;24.70;62.40
69901;DHT22;57183;50.930;5.406;2022-08-06T14:06:48;25.10;59.80
69901;DHT22;57183;50.930;5.406;2022-08-06T14:09:17;25.30;60.10
69901;DHT22;57183;50.930;5.406;2022-08-06T14:11:43;25.40;60.10
69901;DHT22;57183;50.930;5.406;2022-08-06T14:14:08;25.10;61.30
69901;DHT22;57183;50.930;5.406;2022-08-06T14:16:34;24.90;59.90
69901;DHT22;57183;50.930;5.406;2022-08-06T14:19:00;24.70;61.20
69901;DHT22;57183;50.930;5.406;2022-08-06T14:21:26;24.40;62.80
69901;DHT22;57183;50.930;5.406;2022-08-06T14:23:51;24.40;63.80
69901;DHT22;57183;50.930;5.406;2022-08-06T14:26:17;26.30;61.40
69901;DHT22;57183;50.930;5.406;2022-08-06T14:28:43;29.30;55.20
69901;DHT22;57183;50.930;5.406;2022-08-06T14:31:08;31.20;51.60
69901;DHT22;57183;50.930;5.406;2022-08-06T14:33:34;31.90;47.20
69901;DHT22;57183;50.930;5.406;2022-08-06T14:36:00;33.40;44.50
69901;DHT22;57183;50.930;5.406;2022-08-06T14:38:25;34.60;45.30
69901;DHT22;57183;50.930;5.406;2022-08-06T14:40:51;35.00;43.30
69901;DHT22;57183;50.930;5.406;2022-08-06T14:43:35;35.70;41.40
69901;DHT22;57183;50.930;5.406;2022-08-06T14:46:19;34.80;41.80
69901;DHT22;57183;50.930;5.406;2022-08-06T14:48:44;32.80;43.40
69901;DHT22;57183;50.930;5.406;2022-08-06T14:51:10;31.00;44.60
69901;DHT22;57183;50.930;5.406;2022-08-06T14:53:36;29.40;47.60
69901;DHT22;57183;50.930;5.406;2022-08-06T14:56:01;28.30;48.70
69901;DHT22;57183;50.930;5.406;2022-08-06T14:58:27;27.60;50.40
69901;DHT22;57183;50.930;5.406;2022-08-06T15:00:53;27.30;51.00
69901;DHT22;57183;50.930;5.406;2022-08-06T15:03:18;28.90;49.70
69901;DHT22;57183;50.930;5.406;2022-08-06T15:05:46;31.00;47.20
69901;DHT22;57183;50.930;5.406;2022-08-06T15:08:12;32.60;45.30
69901;DHT22;57183;50.930;5.406;2022-08-06T15:10:37;33.60;44.20
69901;DHT22;57183;50.930;5.406;2022-08-06T15:13:04;33.30;42.80
69901;DHT22;57183;50.930;5.406;2022-08-06T15:15:31;33.40;43.80
69901;DHT22;57183;50.930;5.406;2022-08-06T15:17:57;33.40;43.30
69901;DHT22;57183;50.930;5.406;2022-08-06T15:20:23;34.20;41.80
69901;DHT22;57183;50.930;5.406;2022-08-06T15:22:49;35.00;41.90
69901;DHT22;57183;50.930;5.406;2022-08-06T15:25:14;35.20;39.60
69901;DHT22;57183;50.930;5.406;2022-08-06T15:27:44;34.90;40.30
69901;DHT22;57183;50.930;5.406;2022-08-06T15:30:10;35.10;40.30
69901;DHT22;57183;50.930;5.406;2022-08-06T15:32:36;35.30;39.30
69901;DHT22;57183;50.930;5.406;2022-08-06T15:35:02;35.50;39.80
69901;DHT22;57183;50.930;5.406;2022-08-06T15:37:27;35.90;39.50
69901;DHT22;57183;50.930;5.406;2022-08-06T15:39:53;36.60;37.70
69901;DHT22;57183;50.930;5.406;2022-08-06T15:42:19;37.20;37.00
69901;DHT22;57183;50.930;5.406;2022-08-06T15:44:46;37.90;37.90
69901;DHT22;57183;50.930;5.406;2022-08-06T15:47:11;36.90;37.10
69901;DHT22;57183;50.930;5.406;2022-08-06T15:49:39;34.30;39.10
69901;DHT22;57183;50.930;5.406;2022-08-06T15:52:04;32.40;41.60
69901;DHT22;57183;50.930;5.406;2022-08-06T15:54:30;30.80;43.60
69901;DHT22;57183;50.930;5.406;2022-08-06T15:56:56;30.50;43.90
69901;DHT22;57183;50.930;5.406;2022-08-06T15:59:21;30.70;43.90
69901;DHT22;57183;50.930;5.406;2022-08-06T16:01:48;29.70;44.90
69901;DHT22;57183;50.930;5.406;2022-08-06T16:04:14;28.90;46.10
69901;DHT22;57183;50.930;5.406;2022-08-06T16:06:39;27.90;47.80
69901;DHT22;57183;50.930;5.406;2022-08-06T16:09:05;27.40;48.90
69901;DHT22;57183;50.930;5.406;2022-08-06T16:11:31;26.90;49.80
69901;DHT22;57183;50.930;5.406;2022-08-06T16:13:56;26.50;51.40
69901;DHT22;57183;50.930;5.406;2022-08-06T16:16:22;26.20;51.50
69901;DHT22;57183;50.930;5.406;2022-08-06T16:18:48;25.80;52.40
69901;DHT22;57183;50.930;5.406;2022-08-06T16:21:13;25.90;52.20
69901;DHT22;57183;50.930;5.406;2022-08-06T16:23:39;27.20;50.60
69901;DHT22;57183;50.930;5.406;2022-08-06T16:26:05;28.00;49.20
69901;DHT22;57183;50.930;5.406;2022-08-06T16:28:31;29.30;47.80
69901;DHT22;57183;50.930;5.406;2022-08-06T16:30:56;30.30;45.30
69901;DHT22;57183;50.930;5.406;2022-08-06T16:33:22;30.90;44.50
69901;DHT22;57183;50.930;5.406;2022-08-06T16:35:47;31.10;43.40
69901;DHT22;57183;50.930;5.406;2022-08-06T16:38:16;31.10;44.10
69901;DHT22;57183;50.930;5.406;2022-08-06T16:40:42;31.90;43.80
69901;DHT22;57183;50.930;5.406;2022-08-06T16:43:08;32.90;43.30
69901;DHT22;57183;50.930;5.406;2022-08-06T16:45:33;34.00;41.60